Time;durP1;ratioP1;P1;durP2;ratioP2;P2;SDS_P1;SDS_P2;PMS_P1;PMS_P2;Temp;Humidity;BMP_temperature;BMP_pressure;BME280_temperature;BME280_humidity;BME280_pressure;Samples;Min_cycle;Max_cycle;Signal;HPM_P1;HPM_P2
2022/03/14 00:01:16;;;;;;;9.37;5.50;;;6.70;85.30;;;;;;4936041;29;20239;-61
2022/03/14 00:03:50;;;;;;;8.73;5.70;;;6.60;85.60;;;;;;4923713;29;20243;-61
2022/03/14 00:06:18;;;;;;;9.17;5.67;;;6.60;85.80;;;;;;4916419;29;20287;-61
2022/03/14 00:08:47;;;;;;;7.47;5.43;;;6.50;86.10;;;;;;4916620;29;20241;-61
2022/03/14 00:11:16;;;;;;;8.67;6.10;;;6.50;86.10;;;;;;4916699;29;20315;-61
2022/03/14 00:13:46;;;;;;;7.60;5.87;;;6.60;86.00;;;;;;4917053;29;20240;-61
2022/03/14 00:16:24;;;;;;;9.73;5.53;;;6.50;85.80;;;;;;4916731;29;20243;-61
2022/03/14 00:18:55;;;;;;;7.83;5.63;;;6.50;85.80;;;;;;4916793;29;20236;-61
2022/03/14 00:21:25;;;;;;;8.77;5.80;;;6.50;86.10;;;;;;4916845;29;20268;-62
2022/03/14 00:23:53;;;;;;;7.83;5.77;;;6.50;87.80;;;;;;4935332;29;20581;-61
2022/03/14 00:26:25;;;;;;;7.87;5.43;;;6.40;86.70;;;;;;4935542;29;20326;-61
2022/03/14 00:28:55;;;;;;;7.90;5.50;;;6.40;86.50;;;;;;4926301;29;20233;-62
2022/03/14 00:31:23;;;;;;;8.23;5.33;;;6.40;86.70;;;;;;4916249;29;20231;-61
2022/03/14 00:33:51;;;;;;;7.77;4.30;;;6.40;86.30;;;;;;4916416;29;20878;-61
2022/03/14 00:36:20;;;;;;;6.67;5.33;;;6.50;92.40;;;;;;4916575;29;20238;-61
2022/03/14 00:38:48;;;;;;;7.90;5.50;;;6.40;86.80;;;;;;4928357;29;20712;-61
2022/03/14 00:41:17;;;;;;;7.77;5.50;;;6.40;87.10;;;;;;4935351;29;20239;-61
2022/03/14 00:43:47;;;;;;;8.60;6.17;;;6.30;87.10;;;;;;4935153;29;20318;-61
2022/03/14 00:46:16;;;;;;;9.10;5.33;;;6.40;87.30;;;;;;4935116;29;20246;-61
2022/03/14 00:48:46;;;;;;;7.37;5.33;;;6.40;90.80;;;;;;4934993;29;20238;-61
2022/03/14 00:51:14;;;;;;;7.07;5.27;;;6.40;86.70;;;;;;4935184;29;20282;-61
2022/03/14 00:53:42;;;;;;;8.93;5.63;;;6.40;87.50;;;;;;4923421;29;20232;-61
2022/03/14 00:56:10;;;;;;;8.67;5.60;;;6.30;87.80;;;;;;4916061;29;20240;-61
2022/03/14 00:58:39;;;;;;;6.83;5.40;;;6.30;87.20;;;;;;4920693;29;20239;-62
2022/03/14 01:01:10;;;;;;;8.70;5.87;;;6.30;86.60;;;;;;4915720;29;20774;-62
2022/03/14 01:03:38;;;;;;;7.77;5.60;;;6.20;86.40;;;;;;4926890;29;20232;-61
2022/03/14 01:06:06;;;;;;;6.93;5.20;;;6.20;86.40;;;;;;4935051;29;20240;-61
2022/03/14 01:08:34;;;;;;;6.47;5.17;;;6.20;86.30;;;;;;4934667;29;20321;-61
2022/03/14 01:11:02;;;;;;;7.20;5.53;;;6.20;87.00;;;;;;4934710;29;20256;-61
2022/03/14 01:13:31;;;;;;;10.07;5.90;;;6.20;86.60;;;;;;4925180;29;20233;-61
2022/03/14 01:16:03;;;;;;;9.93;5.93;;;6.20;86.70;;;;;;4915725;29;20255;-61
2022/03/14 01:18:33;;;;;;;9.43;5.70;;;6.10;87.00;;;;;;4915969;29;20233;-61
2022/03/14 01:21:01;;;;;;;9.03;5.90;;;6.10;87.10;;;;;;4915572;29;20292;-62
2022/03/14 01:23:30;;;;;;;8.00;5.43;;;6.10;86.90;;;;;;4915299;29;20283;-61
2022/03/14 01:25:58;;;;;;;8.10;5.43;;;6.10;86.90;;;;;;4915357;29;20244;-61
2022/03/14 01:28:26;;;;;;;8.40;5.33;;;6.10;86.70;;;;;;4914918;29;20217;-61
2022/03/14 01:30:55;;;;;;;7.67;5.40;;;6.10;86.80;;;;;;4915158;29;20241;-62
2022/03/14 01:33:23;;;;;;;8.07;5.43;;;6.00;86.90;;;;;;4915250;29;20232;-62
2022/03/14 01:35:52;;;;;;;6.80;5.67;;;6.00;87.00;;;;;;4915267;29;20288;-61
2022/03/14 01:38:20;;;;;;;7.20;5.57;;;6.00;87.20;;;;;;4915293;29;20238;-61
2022/03/14 01:40:48;;;;;;;8.93;6.17;;;6.00;87.30;;;;;;4914776;29;20236;-61
2022/03/14 01:43:16;;;;;;;9.07;6.03;;;6.00;87.30;;;;;;4915047;29;20236;-62
2022/03/14 01:45:46;;;;;;;7.40;5.27;;;6.00;87.10;;;;;;4915100;29;20264;-61
2022/03/14 01:48:14;;;;;;;8.53;5.77;;;6.00;87.30;;;;;;4915008;29;20348;-61
2022/03/14 01:50:42;;;;;;;8.33;5.67;;;6.00;87.40;;;;;;4914699;29;20300;-61
2022/03/14 01:53:13;;;;;;;9.27;5.90;;;5.90;87.30;;;;;;4915294;29;20248;-61
2022/03/14 01:55:41;;;;;;;7.70;5.77;;;5.90;87.40;;;;;;4915074;29;20243;-62
2022/03/14 01:58:09;;;;;;;8.80;6.43;;;5.90;87.60;;;;;;4914662;29;20263;-62
2022/03/14 02:00:39;;;;;;;7.83;5.70;;;5.90;87.80;;;;;;4907387;29;20239;-61
2022/03/14 02:03:07;;;;;;;8.40;5.90;;;5.90;87.70;;;;;;4915045;29;20660;-61
2022/03/14 02:05:37;;;;;;;8.23;5.83;;;5.90;87.90;;;;;;4915105;29;20697;-61
2022/03/14 02:08:06;;;;;;;7.47;5.70;;;5.80;87.90;;;;;;4920987;29;20312;-61
2022/03/14 02:10:36;;;;;;;6.30;5.20;;;5.80;88.00;;;;;;4933882;29;20240;-61
2022/03/14 02:13:05;;;;;;;8.97;6.33;;;5.80;89.00;;;;;;4927233;29;20260;-62
2022/03/14 02:15:36;;;;;;;8.63;5.43;;;5.80;88.20;;;;;;4914934;29;20319;-61
2022/03/14 02:18:04;;;;;;;9.67;6.13;;;5.80;88.10;;;;;;4914712;29;20247;-62
2022/03/14 02:20:34;;;;;;;8.50;5.90;;;5.80;88.20;;;;;;4914724;29;20239;-61
2022/03/14 02:23:02;;;;;;;7.97;5.73;;;5.70;88.30;;;;;;4920421;29;20580;-61
2022/03/14 02:25:34;;;;;;;8.00;5.67;;;5.70;88.50;;;;;;4933425;29;20242;-61
2022/03/14 02:28:02;;;;;;;9.13;6.53;;;5.70;88.50;;;;;;4927160;29;20244;-61
2022/03/14 02:30:30;;;;;;;10.23;5.87;;;5.70;88.70;;;;;;4913967;29;20728;-61
2022/03/14 02:33:01;;;;;;;9.87;6.47;;;5.70;88.80;;;;;;4914426;29;20775;-61
2022/03/14 02:35:29;;;;;;;8.27;5.77;;;5.60;88.90;;;;;;4914552;29;20240;-61
2022/03/14 02:37:59;;;;;;;9.83;6.13;;;5.60;89.00;;;;;;4914495;29;20244;-61
2022/03/14 02:40:27;;;;;;;9.40;6.10;;;5.60;89.10;;;;;;4914561;29;20240;-62
2022/03/14 02:42:56;;;;;;;7.20;5.47;;;5.60;89.10;;;;;;4919387;29;20631;-61
2022/03/14 02:45:24;;;;;;;6.93;5.63;;;5.60;89.20;;;;;;4933242;29;20798;-61
2022/03/14 02:47:52;;;;;;;8.90;6.17;;;5.60;90.40;;;;;;4933346;29;20235;-62
2022/03/14 02:50:20;;;;;;;10.33;5.93;;;5.60;89.60;;;;;;4933326;29;20255;-61
2022/03/14 02:52:48;;;;;;;9.83;5.97;;;5.50;89.50;;;;;;4929669;29;20239;-61
2022/03/14 02:55:21;;;;;;;9.63;6.40;;;5.50;90.00;;;;;;4918201;29;20260;-61
2022/03/14 02:57:49;;;;;;;7.83;5.77;;;5.50;90.80;;;;;;4917940;29;20626;-62
2022/03/14 03:00:17;;;;;;;11.00;6.30;;;5.50;90.60;;;;;;4917857;29;20259;-61
2022/03/14 03:02:45;;;;;;;8.20;6.10;;;5.50;90.00;;;;;;4920350;29;20592;-61
2022/03/14 03:05:14;;;;;;;6.63;5.47;;;5.50;90.20;;;;;;4918067;29;20243;-62
2022/03/14 03:07:42;;;;;;;8.57;6.30;;;5.50;91.90;;;;;;4921142;29;20240;-61
2022/03/14 03:10:11;;;;;;;7.63;6.30;;;5.40;90.30;;;;;;4899393;29;20268;-61
2022/03/14 03:12:40;;;;;;;8.70;5.60;;;5.40;90.20;;;;;;4896102;29;20714;-62
2022/03/14 03:15:14;;;;;;;8.20;6.07;;;5.50;93.50;;;;;;4880483;29;20272;-61
2022/03/14 03:17:42;;;;;;;8.40;5.97;;;5.50;91.50;;;;;;4883404;29;20241;-61
2022/03/14 03:20:12;;;;;;;9.57;6.40;;;5.50;90.70;;;;;;4899416;29;20237;-62
2022/03/14 03:22:40;;;;;;;8.90;6.20;;;5.50;90.90;;;;;;4898971;29;20324;-62
2022/03/14 03:25:08;;;;;;;10.07;6.50;;;5.40;90.60;;;;;;4899515;29;20242;-61
2022/03/14 03:27:36;;;;;;;8.73;6.27;;;5.40;90.60;;;;;;4897926;29;20678;-62
2022/03/14 03:30:07;;;;;;;10.93;6.73;;;5.40;91.00;;;;;;4880209;29;20236;-61
2022/03/14 03:32:35;;;;;;;9.93;5.87;;;5.40;90.70;;;;;;4880481;29;20252;-61
2022/03/14 03:35:04;;;;;;;8.93;6.20;;;5.40;90.70;;;;;;4880301;29;20324;-61
2022/03/14 03:37:32;;;;;;;8.37;5.73;;;5.30;90.80;;;;;;4880412;29;20230;-61
2022/03/14 03:40:00;;;;;;;9.50;6.23;;;5.30;90.90;;;;;;4880158;29;20240;-61
2022/03/14 03:42:29;;;;;;;9.87;6.63;;;5.30;90.90;;;;;;4881793;29;20245;-61
2022/03/14 03:44:57;;;;;;;7.70;5.67;;;5.30;91.80;;;;;;4898629;29;20260;-61
2022/03/14 03:47:26;;;;;;;6.40;5.30;;;5.30;91.10;;;;;;4898632;29;20253;-62
2022/03/14 03:49:54;;;;;;;9.07;6.30;;;5.40;93.30;;;;;;4898746;29;20245;-61
2022/03/14 03:52:22;;;;;;;9.57;6.37;;;5.30;91.20;;;;;;4897467;29;20241;-62
2022/03/14 03:54:50;;;;;;;10.47;7.07;;;5.40;93.20;;;;;;4879740;29;20245;-61
2022/03/14 03:57:18;;;;;;;11.07;7.37;;;5.40;93.50;;;;;;4880053;29;20646;-62
2022/03/14 03:59:47;;;;;;;14.13;9.73;;;5.40;91.30;;;;;;4880558;29;20286;-61
2022/03/14 04:02:19;;;;;;;12.57;7.87;;;5.30;91.40;;;;;;4879476;29;20241;-61
2022/03/14 04:04:50;;;;;;;11.40;8.03;;;5.30;91.30;;;;;;4860598;29;20254;-62
2022/03/14 04:07:19;;;;;;;12.07;8.67;;;5.20;91.20;;;;;;4861043;29;20252;-62
2022/03/14 04:09:49;;;;;;;15.13;9.87;;;5.20;91.30;;;;;;4911343;29;20282;-61
2022/03/14 04:12:17;;;;;;;19.57;12.93;;;5.20;91.40;;;;;;4916433;29;20715;-62
2022/03/14 04:14:47;;;;;;;20.70;10.50;;;5.20;91.40;;;;;;4915518;29;20262;-61
2022/03/14 04:17:15;;;;;;;14.30;9.30;;;5.30;91.80;;;;;;4916885;29;20248;-61
2022/03/14 04:19:44;;;;;;;11.97;8.33;;;5.20;91.40;;;;;;4935622;29;20268;-61
2022/03/14 04:22:14;;;;;;;11.33;7.27;;;5.20;91.40;;;;;;4935489;29;20243;-62
2022/03/14 04:24:42;;;;;;;9.63;7.30;;;5.20;91.40;;;;;;4935710;29;20508;-61
2022/03/14 04:27:10;;;;;;;10.50;6.77;;;5.20;91.80;;;;;;4935514;29;20235;-61
2022/03/14 04:29:38;;;;;;;9.93;6.87;;;5.20;91.60;;;;;;4916496;29;20651;-62
2022/03/14 04:32:07;;;;;;;12.03;7.23;;;5.20;91.60;;;;;;4916210;29;20232;-62
2022/03/14 04:34:35;;;;;;;9.37;6.07;;;5.20;91.60;;;;;;4916264;29;20255;-62
2022/03/14 04:37:03;;;;;;;10.07;6.33;;;5.20;92.20;;;;;;4915956;29;20239;-61
2022/03/14 04:39:33;;;;;;;7.20;6.00;;;5.20;91.60;;;;;;4917909;29;20240;-62
2022/03/14 04:42:01;;;;;;;9.30;6.07;;;5.10;91.70;;;;;;4913615;29;20238;-62
2022/03/14 04:44:29;;;;;;;9.17;6.47;;;5.10;91.70;;;;;;4915714;29;20326;-61
2022/03/14 04:46:58;;;;;;;11.37;6.30;;;5.10;91.90;;;;;;4916059;29;20256;-61
2022/03/14 04:49:26;;;;;;;9.83;6.03;;;5.10;92.00;;;;;;4916004;29;20236;-62
2022/03/14 04:51:55;;;;;;;8.83;6.70;;;5.10;92.00;;;;;;4916000;29;20464;-62
2022/03/14 04:54:26;;;;;;;9.30;6.47;;;5.10;92.20;;;;;;4915909;29;20268;-61
2022/03/14 04:56:55;;;;;;;9.57;6.10;;;5.10;93.60;;;;;;4915797;29;20241;-61
2022/03/14 04:59:24;;;;;;;8.93;6.50;;;5.10;94.20;;;;;;4915278;29;20514;-61
2022/03/14 05:01:52;;;;;;;11.60;6.47;;;5.10;92.30;;;;;;4915933;29;20240;-61
2022/03/14 05:04:20;;;;;;;9.30;5.90;;;5.10;93.50;;;;;;4915792;29;20262;-61
2022/03/14 05:06:48;;;;;;;9.17;6.43;;;5.00;92.40;;;;;;4915751;29;20732;-62
2022/03/14 05:09:16;;;;;;;8.60;5.67;;;5.00;92.40;;;;;;4931006;29;20288;-61
2022/03/14 05:11:44;;;;;;;8.50;6.30;;;5.00;95.00;;;;;;4934589;29;20255;-61
2022/03/14 05:14:15;;;;;;;8.07;6.00;;;5.00;93.00;;;;;;4918964;29;20634;-61
2022/03/14 05:16:43;;;;;;;9.43;6.63;;;5.00;92.80;;;;;;4914877;29;20236;-61
2022/03/14 05:19:11;;;;;;;8.53;6.40;;;4.90;92.70;;;;;;4915550;29;20562;-61
2022/03/14 05:21:39;;;;;;;9.30;6.90;;;4.90;94.50;;;;;;4915343;29;20240;-61
2022/03/14 05:24:09;;;;;;;10.23;6.80;;;5.10;96.00;;;;;;4930220;29;21025;-62
2022/03/14 05:26:37;;;;;;;8.73;5.30;;;5.10;95.10;;;;;;4934410;29;20259;-61
2022/03/14 05:29:05;;;;;;;9.47;6.27;;;5.20;99.90;;;;;;4917853;29;20460;-62
2022/03/14 05:31:35;;;;;;;9.47;6.33;;;5.40;99.90;;;;;;4915273;29;20689;-61
2022/03/14 05:34:03;;;;;;;7.93;5.93;;;5.30;96.80;;;;;;4915140;29;20236;-61
2022/03/14 05:36:31;;;;;;;10.53;6.70;;;5.50;99.90;;;;;;4915393;29;20689;-61
2022/03/14 05:38:59;;;;;;;8.60;6.57;;;5.40;98.60;;;;;;4928734;29;20331;-61
2022/03/14 05:41:28;;;;;;;9.93;6.00;;;5.30;99.90;;;;;;4929639;29;20856;-62
2022/03/14 05:43:56;;;;;;;8.50;6.00;;;5.60;99.90;;;;;;4914403;29;20748;-61
2022/03/14 05:46:24;;;;;;;8.80;5.97;;;5.50;99.90;;;;;;4914679;29;20568;-62
2022/03/14 05:48:53;;;;;;;9.00;6.30;;;5.50;99.90;;;;;;4927417;29;20248;-61
2022/03/14 05:51:21;;;;;;;9.50;6.47;;;5.50;99.90;;;;;;4934102;29;20644;-61
2022/03/14 05:53:51;;;;;;;12.00;7.10;;;5.40;99.90;;;;;;4921169;29;20244;-62
2022/03/14 05:56:19;;;;;;;10.47;6.27;;;5.20;99.90;;;;;;4915334;29;20267;-62
2022/03/14 05:58:47;;;;;;;11.67;7.47;;;5.20;99.90;;;;;;4920731;29;20480;-62
2022/03/14 06:01:15;;;;;;;11.67;7.50;;;5.10;99.90;;;;;;4914831;29;20314;-61
2022/03/14 06:03:43;;;;;;;10.30;6.30;;;5.10;99.90;;;;;;4918748;29;20279;-61
2022/03/14 06:06:13;;;;;;;11.27;7.13;;;5.10;99.90;;;;;;4925792;29;20254;-61
2022/03/14 06:08:41;;;;;;;10.30;7.40;;;5.10;99.90;;;;;;4933047;29;20321;-62
2022/03/14 06:11:09;;;;;;;7.90;6.00;;;5.20;99.90;;;;;;4925155;29;20238;-61
2022/03/14 06:13:37;;;;;;;9.93;6.50;;;5.20;99.90;;;;;;4918130;29;20322;-62
2022/03/14 06:16:06;;;;;;;9.73;6.53;;;5.20;99.90;;;;;;4917365;29;20237;-61
2022/03/14 06:18:34;;;;;;;10.00;6.70;;;5.30;99.90;;;;;;4924916;29;20468;-62
2022/03/14 06:21:02;;;;;;;10.07;6.90;;;5.30;99.90;;;;;;4925553;29;20770;-61
2022/03/14 06:23:32;;;;;;;10.60;7.40;;;5.30;99.20;;;;;;4916148;29;20284;-61
2022/03/14 06:26:00;;;;;;;9.40;7.27;;;5.40;99.20;;;;;;4913861;29;20224;-61
2022/03/14 06:28:29;;;;;;;9.13;6.87;;;5.40;97.80;;;;;;4913224;29;20228;-61
2022/03/14 06:30:57;;;;;;;14.70;7.57;;;5.40;97.30;;;;;;4913524;29;20704;-61
2022/03/14 06:33:25;;;;;;;11.20;7.13;;;5.50;97.20;;;;;;4912942;29;20289;-61
2022/03/14 06:35:53;;;;;;;11.17;7.40;;;5.50;96.90;;;;;;4914363;29;20292;-61
2022/03/14 06:38:21;;;;;;;10.90;7.43;;;5.60;97.00;;;;;;4898441;29;20240;-61
2022/03/14 06:40:51;;;;;;;9.37;6.87;;;5.60;96.80;;;;;;4925351;29;20656;-61
2022/03/14 06:43:21;;;;;;;11.27;6.87;;;5.60;97.30;;;;;;4924117;29;20650;-61
2022/03/14 06:45:50;;;;;;;9.90;6.50;;;5.70;97.10;;;;;;4914212;29;20241;-62
2022/03/14 06:48:19;;;;;;;10.90;7.17;;;5.70;96.50;;;;;;4912011;29;20248;-61
2022/03/14 06:50:47;;;;;;;10.40;6.77;;;5.70;96.20;;;;;;4914160;29;20235;-61
2022/03/14 06:53:15;;;;;;;10.97;7.00;;;5.80;96.50;;;;;;4914686;29;20240;-61
2022/03/14 06:55:43;;;;;;;9.00;6.73;;;5.90;96.30;;;;;;4921417;29;20237;-61
2022/03/14 06:58:12;;;;;;;9.47;6.60;;;6.00;96.30;;;;;;4913691;29;20732;-61
2022/03/14 07:00:42;;;;;;;10.53;7.10;;;6.20;96.20;;;;;;4913561;29;20238;-61
2022/03/14 07:03:10;;;;;;;9.33;6.63;;;6.30;96.10;;;;;;4926029;29;20239;-61
2022/03/14 07:05:38;;;;;;;9.57;6.47;;;6.50;96.00;;;;;;4914721;29;20247;-62
2022/03/14 07:08:09;;;;;;;9.73;7.43;;;6.60;96.10;;;;;;4921271;29;20300;-61
2022/03/14 07:10:37;;;;;;;8.90;6.50;;;6.70;95.60;;;;;;4913985;29;20252;-61
2022/03/14 07:13:05;;;;;;;10.53;7.63;;;6.90;96.10;;;;;;4914264;29;20239;-61
2022/03/14 07:15:35;;;;;;;10.30;7.27;;;7.00;95.40;;;;;;4913792;29;20292;-61
2022/03/14 07:18:03;;;;;;;10.17;7.50;;;7.10;95.60;;;;;;4914297;29;20315;-61
2022/03/14 07:20:31;;;;;;;10.60;7.17;;;7.20;96.00;;;;;;4924127;29;20240;-61
2022/03/14 07:23:00;;;;;;;9.87;6.80;;;7.20;94.90;;;;;;4920579;29;20490;-62
2022/03/14 07:25:30;;;;;;;9.63;6.83;;;7.10;94.50;;;;;;4913822;29;20236;-61
2022/03/14 07:28:01;;;;;;;9.50;6.87;;;7.00;94.80;;;;;;4915523;29;20233;-61
2022/03/14 07:30:29;;;;;;;9.20;6.80;;;7.00;95.90;;;;;;4918151;29;20645;-61
2022/03/14 07:32:59;;;;;;;8.37;6.57;;;7.10;94.90;;;;;;4927478;29;20247;-61
2022/03/14 07:35:29;;;;;;;9.17;6.87;;;7.10;95.40;;;;;;4920964;29;20263;-61
2022/03/14 07:37:57;;;;;;;9.37;6.93;;;7.20;94.70;;;;;;4909892;29;20243;-61
2022/03/14 07:40:26;;;;;;;10.80;6.70;;;7.20;94.80;;;;;;4916645;29;20247;-61
2022/03/14 07:42:56;;;;;;;9.00;7.13;;;7.10;94.50;;;;;;4917466;29;20323;-61
2022/03/14 07:45:28;;;;;;;9.23;6.93;;;7.10;94.80;;;;;;4925730;29;20327;-61
2022/03/14 07:47:59;;;;;;;10.00;7.20;;;7.10;96.10;;;;;;4930085;29;20743;-61
2022/03/14 07:50:28;;;;;;;11.07;6.93;;;7.10;95.30;;;;;;4926899;29;20236;-61
2022/03/14 07:52:57;;;;;;;9.83;7.70;;;7.20;96.00;;;;;;4930643;29;20240;-61
2022/03/14 07:55:25;;;;;;;10.57;7.43;;;7.10;94.80;;;;;;4926224;29;20233;-61
2022/03/14 07:57:53;;;;;;;9.40;6.73;;;7.10;94.80;;;;;;4925247;29;20339;-61
2022/03/14 08:00:22;;;;;;;11.97;7.20;;;7.10;95.20;;;;;;4930818;29;20603;-61
2022/03/14 08:02:51;;;;;;;10.27;7.33;;;7.10;95.30;;;;;;4922947;29;20304;-61
2022/03/14 08:05:24;;;;;;;10.53;6.97;;;7.00;94.70;;;;;;4916724;29;20272;-61
2022/03/14 08:07:53;;;;;;;9.53;6.87;;;7.00;94.90;;;;;;4923771;29;20288;-61
2022/03/14 08:10:23;;;;;;;13.70;7.60;;;7.10;95.30;;;;;;4925909;29;20248;-61
2022/03/14 08:12:53;;;;;;;9.77;7.13;;;7.20;95.50;;;;;;4930514;29;20236;-61
2022/03/14 08:15:24;;;;;;;9.53;7.27;;;7.30;95.30;;;;;;4916127;29;20236;-61
2022/03/14 08:17:54;;;;;;;9.87;7.20;;;7.30;95.10;;;;;;4916532;29;20288;-61
2022/03/14 08:20:26;;;;;;;10.53;7.43;;;7.30;94.80;;;;;;4923439;29;20235;-61
2022/03/14 08:22:55;;;;;;;10.83;7.17;;;7.30;95.10;;;;;;4916600;29;20243;-61
2022/03/14 08:25:23;;;;;;;12.77;7.60;;;7.30;95.00;;;;;;4916384;29;20225;-61
2022/03/14 08:27:52;;;;;;;10.50;7.67;;;7.40;95.40;;;;;;4923993;29;20244;-61
2022/03/14 08:30:21;;;;;;;11.37;8.30;;;7.40;95.90;;;;;;4916071;29;20243;-62
2022/03/14 08:32:50;;;;;;;11.63;8.30;;;7.40;95.40;;;;;;4922413;29;20240;-61
2022/03/14 08:35:20;;;;;;;12.97;8.37;;;7.50;95.50;;;;;;4916350;29;20261;-61
2022/03/14 08:37:52;;;;;;;12.30;8.30;;;7.70;96.80;;;;;;4916154;29;20245;-61
2022/03/14 08:40:22;;;;;;;14.27;8.60;;;7.70;95.50;;;;;;4925018;29;20240;-61
2022/03/14 08:42:52;;;;;;;10.97;8.03;;;7.80;95.50;;;;;;4919447;29;20259;-61
2022/03/14 08:45:21;;;;;;;11.27;8.13;;;7.90;95.90;;;;;;4924022;29;20767;-61
2022/03/14 08:47:49;;;;;;;13.07;8.50;;;8.00;95.70;;;;;;4915667;29;20341;-61
2022/03/14 08:50:18;;;;;;;13.83;9.40;;;8.10;96.80;;;;;;4916559;29;20662;-61
2022/03/14 08:52:46;;;;;;;11.10;8.13;;;8.30;96.70;;;;;;4925312;29;20229;-61
2022/03/14 08:55:16;;;;;;;13.57;8.63;;;8.30;96.00;;;;;;4915419;29;20248;-61
2022/03/14 08:57:44;;;;;;;10.30;7.87;;;8.30;96.40;;;;;;4919257;29;20231;-61
2022/03/14 09:00:13;;;;;;;12.43;8.93;;;8.30;96.90;;;;;;4934844;29;20601;-61
2022/03/14 09:02:43;;;;;;;11.77;8.97;;;8.40;96.80;;;;;;4933429;29;20295;-61
2022/03/14 09:05:12;;;;;;;11.03;8.40;;;8.80;99.60;;;;;;4912145;29;20232;-61
2022/03/14 09:07:40;;;;;;;12.03;8.30;;;8.80;97.90;;;;;;4914998;29;20236;-61
2022/03/14 09:10:12;;;;;;;9.47;7.70;;;8.90;98.00;;;;;;4915519;29;20267;-61
2022/03/14 09:12:49;;;;;;;8.83;7.13;;;8.90;98.30;;;;;;4911768;29;20264;-61
2022/03/14 09:15:19;;;;;;;10.60;8.37;;;8.90;97.40;;;;;;4924061;29;20706;-61
2022/03/14 09:17:48;;;;;;;10.30;7.67;;;8.90;98.70;;;;;;4915043;29;20237;-62
2022/03/14 09:20:17;;;;;;;9.77;7.83;;;9.00;97.90;;;;;;4922291;29;20228;-61
2022/03/14 09:22:46;;;;;;;10.73;7.77;;;9.00;99.40;;;;;;4924016;29;20297;-61
2022/03/14 09:25:15;;;;;;;11.10;7.67;;;9.10;99.40;;;;;;4928048;29;20728;-61
2022/03/14 09:27:44;;;;;;;10.63;7.43;;;9.20;99.90;;;;;;4915246;29;20691;-61
2022/03/14 09:30:14;;;;;;;9.83;8.07;;;9.20;99.90;;;;;;4922953;29;20729;-61
2022/03/14 09:32:43;;;;;;;10.50;6.97;;;9.20;98.60;;;;;;4899846;29;20247;-62
2022/03/14 09:35:13;;;;;;;12.20;7.37;;;9.10;98.30;;;;;;4922945;29;20240;-61
2022/03/14 09:37:42;;;;;;;10.77;8.13;;;9.10;98.60;;;;;;4908665;29;20244;-62
2022/03/14 09:40:12;;;;;;;14.53;8.10;;;9.10;99.00;;;;;;4914986;29;20681;-61
2022/03/14 09:42:43;;;;;;;11.63;7.80;;;9.10;99.90;;;;;;4914986;29;20234;-61
2022/03/14 09:45:14;;;;;;;10.87;8.37;;;9.30;99.70;;;;;;4917974;29;20597;-61
2022/03/14 09:47:44;;;;;;;9.83;7.30;;;9.40;99.90;;;;;;4912717;29;20778;-61
2022/03/14 09:50:14;;;;;;;11.53;7.67;;;9.50;99.90;;;;;;4922716;29;20288;-61
2022/03/14 09:52:43;;;;;;;9.33;7.17;;;9.90;99.90;;;;;;4918350;29;20625;-61
2022/03/14 09:55:13;;;;;;;9.67;7.57;;;10.20;99.90;;;;;;4933934;29;20708;-61
2022/03/14 09:57:42;;;;;;;11.97;9.83;;;10.30;99.90;;;;;;4930461;29;20240;-62
2022/03/14 10:00:14;;;;;;;13.13;8.70;;;10.30;99.90;;;;;;4921940;29;20230;-61
2022/03/14 10:02:42;;;;;;;11.27;9.83;;;10.30;99.90;;;;;;4914172;29;20261;-61
2022/03/14 10:05:12;;;;;;;12.70;9.40;;;10.30;99.90;;;;;;4914959;29;20229;-62
2022/03/14 10:07:44;;;;;;;10.90;8.30;;;10.20;99.90;;;;;;4912337;29;20281;-61
2022/03/14 10:10:17;;;;;;;12.17;8.67;;;10.20;99.90;;;;;;4922933;29;20233;-61
2022/03/14 10:12:52;;;;;;;10.33;8.40;;;10.20;99.90;;;;;;4929409;29;20239;-61
2022/03/14 10:15:23;;;;;;;9.80;8.47;;;10.20;99.90;;;;;;4921498;29;20251;-61
2022/03/14 10:17:52;;;;;;;9.83;7.67;;;10.20;99.90;;;;;;4928991;29;20248;-61
2022/03/14 10:20:22;;;;;;;10.10;7.60;;;10.20;99.90;;;;;;4914535;29;20249;-61
2022/03/14 10:22:51;;;;;;;11.10;7.63;;;10.20;99.90;;;;;;4915093;29;20325;-61
2022/03/14 10:25:20;;;;;;;9.47;8.00;;;10.20;99.90;;;;;;4916114;29;20727;-61
2022/03/14 10:27:57;;;;;;;11.97;8.27;;;10.30;99.90;;;;;;4918348;29;20333;-61
2022/03/14 10:30:29;;;;;;;9.87;7.33;;;10.30;99.90;;;;;;4915871;29;20275;-61
2022/03/14 10:33:01;;;;;;;13.57;7.90;;;10.30;99.90;;;;;;4914406;29;20691;-61
2022/03/14 10:35:35;;;;;;;11.47;7.47;;;10.30;99.90;;;;;;4924360;29;20242;-62
2022/03/14 10:38:06;;;;;;;9.83;7.87;;;10.30;99.90;;;;;;4927366;29;20234;-61
2022/03/14 10:40:36;;;;;;;9.70;7.37;;;10.20;99.90;;;;;;4924827;29;20686;-62
2022/03/14 10:43:07;;;;;;;8.90;7.73;;;10.20;99.90;;;;;;4927021;29;20237;-61
2022/03/14 10:45:41;;;;;;;11.63;7.67;;;10.20;99.90;;;;;;4914634;29;20699;-61
2022/03/14 10:48:09;;;;;;;10.00;8.00;;;10.30;99.90;;;;;;4921569;29;20253;-61
2022/03/14 10:50:39;;;;;;;10.00;8.13;;;10.30;99.90;;;;;;4933660;29;20242;-61
2022/03/14 10:53:09;;;;;;;10.43;7.40;;;10.30;99.90;;;;;;4926742;29;20250;-61
2022/03/14 10:55:39;;;;;;;10.90;7.70;;;10.30;99.90;;;;;;4914293;29;20642;-61
2022/03/14 10:58:13;;;;;;;10.43;8.83;;;10.40;99.90;;;;;;4914263;29;20733;-61
2022/03/14 11:00:48;;;;;;;10.37;9.27;;;10.40;99.90;;;;;;4924858;29;20263;-61
2022/03/14 11:03:24;;;;;;;10.97;9.17;;;10.40;99.90;;;;;;4925824;29;20237;-61
2022/03/14 11:05:54;;;;;;;10.77;9.53;;;10.40;99.90;;;;;;4916145;29;20234;-61
2022/03/14 11:08:26;;;;;;;11.00;9.77;;;10.50;99.90;;;;;;4911752;29;20289;-61
2022/03/14 11:10:55;;;;;;;10.30;9.20;;;10.40;99.90;;;;;;4913936;29;20267;-61
2022/03/14 11:13:23;;;;;;;12.13;9.33;;;10.50;99.90;;;;;;4913914;29;20264;-61
2022/03/14 11:15:53;;;;;;;12.37;9.57;;;10.60;99.90;;;;;;4917716;29;20252;-61
2022/03/14 11:18:22;;;;;;;11.20;9.10;;;10.70;99.90;;;;;;4917452;29;20762;-61
2022/03/14 11:20:50;;;;;;;10.77;9.27;;;10.70;99.90;;;;;;4917444;29;20350;-61
2022/03/14 11:23:20;;;;;;;11.07;9.80;;;10.80;99.90;;;;;;4918324;29;20275;-61
2022/03/14 11:25:49;;;;;;;11.03;9.40;;;10.80;99.90;;;;;;4926478;29;20242;-61
2022/03/14 11:28:21;;;;;;;11.00;9.40;;;10.90;99.90;;;;;;4918052;29;20265;-61
2022/03/14 11:30:57;;;;;;;11.33;9.87;;;11.10;99.90;;;;;;4928533;29;20329;-61
2022/03/14 11:33:26;;;;;;;10.97;9.00;;;11.20;99.90;;;;;;4929065;29;20258;-61
2022/03/14 11:35:54;;;;;;;9.83;8.83;;;11.30;99.90;;;;;;4928392;29;20249;-61
2022/03/14 11:38:23;;;;;;;10.30;9.20;;;11.40;99.90;;;;;;4929249;29;20239;-61
2022/03/14 11:40:52;;;;;;;10.47;9.33;;;11.50;99.90;;;;;;4928266;29;20346;-61
2022/03/14 11:43:20;;;;;;;9.93;8.93;;;11.60;99.90;;;;;;4927684;29;20238;-61
2022/03/14 11:45:50;;;;;;;10.27;9.27;;;11.70;99.90;;;;;;4917305;29;20267;-61
2022/03/14 11:48:20;;;;;;;10.37;9.20;;;11.80;99.90;;;;;;4917655;29;20244;-61
2022/03/14 11:50:56;;;;;;;8.63;7.73;;;11.70;99.90;;;;;;4928131;29;20243;-61
2022/03/14 11:53:27;;;;;;;9.37;8.10;;;11.80;99.90;;;;;;4928761;29;20718;-61
2022/03/14 11:55:57;;;;;;;8.27;7.47;;;11.90;99.90;;;;;;4928060;29;20326;-61
2022/03/14 11:58:34;;;;;;;8.10;7.17;;;12.10;99.90;;;;;;4928737;29;20247;-61
2022/03/14 12:01:22;;;;;;;7.63;6.87;;;12.20;99.90;;;;;;4920990;29;20266;-61
2022/03/14 12:03:53;;;;;;;10.00;8.27;;;12.20;99.90;;;;;;4914817;29;20260;-61
2022/03/14 12:06:55;;;;;;;10.53;8.10;;;12.20;99.90;;;;;;4915902;29;20231;-61
2022/03/14 12:09:46;;;;;;;10.57;9.17;;;12.20;99.90;;;;;;4916529;29;20298;-61
2022/03/14 12:12:29;;;;;;;10.60;9.00;;;12.10;99.90;;;;;;4916073;29;20704;-61
2022/03/14 12:14:59;;;;;;;11.73;9.33;;;12.10;99.90;;;;;;4911531;29;20282;-61
2022/03/14 12:17:30;;;;;;;9.90;8.90;;;12.00;99.90;;;;;;4916659;29;20724;-61
2022/03/14 12:20:03;;;;;;;10.37;9.37;;;11.90;99.90;;;;;;4924289;29;20317;-61
2022/03/14 12:22:44;;;;;;;11.73;9.97;;;11.80;99.90;;;;;;4916690;29;20294;-61
2022/03/14 12:25:41;;;;;;;11.40;10.27;;;11.70;99.90;;;;;;4925882;29;20324;-61
2022/03/14 12:28:26;;;;;;;13.00;11.70;;;11.70;99.90;;;;;;4923341;29;20307;-61
2022/03/14 12:30:59;;;;;;;14.93;13.40;;;11.70;99.90;;;;;;4923885;29;20365;-60
2022/03/14 12:33:32;;;;;;;14.50;13.10;;;11.70;99.90;;;;;;4924226;29;20235;-61
2022/03/14 12:36:41;;;;;;;14.10;12.70;;;11.60;99.90;;;;;;4923914;29;20596;-60
2022/03/14 12:39:25;;;;;;;11.57;10.37;;;11.60;99.90;;;;;;4912167;29;20240;-60
2022/03/14 12:41:54;;;;;;;10.80;9.70;;;11.60;99.90;;;;;;4916098;29;20247;-60
2022/03/14 12:44:24;;;;;;;12.03;10.17;;;11.60;99.90;;;;;;4923821;29;20239;-60
2022/03/14 12:46:56;;;;;;;10.13;9.13;;;11.60;99.90;;;;;;4923769;29;20491;-60
2022/03/14 12:49:26;;;;;;;10.13;8.80;;;11.50;99.90;;;;;;4917220;29;20242;-60
2022/03/14 12:52:13;;;;;;;11.27;10.07;;;11.50;99.90;;;;;;4915529;29;20275;-61
2022/03/14 12:54:42;;;;;;;12.87;11.43;;;11.40;99.90;;;;;;4927132;29;20241;-60
2022/03/14 12:57:11;;;;;;;11.70;9.90;;;11.40;99.90;;;;;;4922000;29;20237;-60
2022/03/14 12:59:45;;;;;;;13.67;11.53;;;11.30;99.90;;;;;;4923884;29;20232;-61
2022/03/14 13:02:22;;;;;;;10.77;9.67;;;11.30;99.90;;;;;;4923488;29;20576;-61
2022/03/14 13:04:55;;;;;;;9.93;8.83;;;11.30;99.90;;;;;;4922088;29;20263;-61